createdAt,value
2022-10-28T00:00:07.384Z,3.65
2022-10-28T00:01:11.774Z,2.70
2022-10-28T00:02:15.981Z,3.17
2022-10-28T00:03:18.566Z,2.55
2022-10-28T00:04:21.870Z,2.97
2022-10-28T00:05:23.757Z,2.60
2022-10-28T00:06:29.119Z,2.45
2022-10-28T00:07:30.885Z,2.90
2022-10-28T00:08:34.406Z,2.92
2022-10-28T00:09:36.182Z,2.25
2022-10-28T00:10:39.187Z,2.67
2022-10-28T00:11:41.186Z,2.30
2022-10-28T00:12:44.105Z,2.70
2022-10-28T00:13:46.475Z,2.42
2022-10-28T00:14:49.332Z,3.70
2022-10-28T00:15:51.107Z,2.80
2022-10-28T00:16:53.901Z,2.90
2022-10-28T00:17:57.058Z,2.70
2022-10-28T00:19:02.089Z,2.40
2022-10-28T00:20:04.500Z,2.80
2022-10-28T00:21:09.991Z,2.55
2022-10-28T00:22:11.775Z,3.20
2022-10-28T00:23:14.539Z,3.08
2022-10-28T00:24:16.340Z,2.90
2022-10-28T00:25:24.499Z,2.95
2022-10-28T00:26:28.592Z,3.10
2022-10-28T00:27:33.212Z,2.90
2022-10-28T00:28:35.272Z,2.70
2022-10-28T00:29:38.055Z,2.83
2022-10-28T00:30:39.952Z,2.60
2022-10-28T00:31:43.146Z,3.05
2022-10-28T00:32:45.007Z,3.05
2022-10-28T00:33:50.097Z,2.80
2022-10-28T00:34:51.921Z,3.60
2022-10-28T00:35:54.706Z,2.63
2022-10-28T00:36:56.538Z,3.25
2022-10-28T00:37:59.362Z,3.05
2022-10-28T00:39:02.375Z,3.13
2022-10-28T00:40:06.113Z,3.78
2022-10-28T00:41:08.634Z,3.42
2022-10-28T00:42:11.840Z,3.17
2022-10-28T00:43:13.655Z,2.72
2022-10-28T00:44:54.310Z,3.72
2022-10-28T00:45:56.422Z,3.53
2022-10-28T00:46:59.533Z,3.65
2022-10-28T00:48:04.753Z,2.88
2022-10-28T00:49:23.090Z,3.33
2022-10-28T00:50:38.889Z,3.13
2022-10-28T00:51:42.939Z,2.90
2022-10-28T00:52:47.096Z,2.78
2022-10-28T00:53:52.073Z,3.10
2022-10-28T00:54:55.924Z,3.15
2022-10-28T00:56:02.169Z,2.75
2022-10-28T00:57:10.681Z,4.20
2022-10-28T00:58:13.694Z,2.33
2022-10-28T00:59:22.434Z,3.72
2022-10-28T01:00:26.527Z,3.13
2022-10-28T01:01:28.703Z,3.47
2022-10-28T01:02:33.960Z,2.85
2022-10-28T01:03:37.330Z,2.55
2022-10-28T01:04:42.571Z,3.30
2022-10-28T01:05:49.311Z,2.70
2022-10-28T01:06:52.850Z,3.10
2022-10-28T01:07:58.754Z,2.80
2022-10-28T01:09:02.195Z,2.40
2022-10-28T01:10:04.389Z,2.95
2022-10-28T01:11:23.809Z,3.00
2022-10-28T01:12:35.410Z,3.30
2022-10-28T01:13:50.079Z,2.60
2022-10-28T01:15:05.825Z,2.88
2022-10-28T01:16:18.612Z,2.50
2022-10-28T01:17:32.824Z,3.15
2022-10-28T01:18:46.572Z,2.15
2022-10-28T01:20:22.799Z,2.70
2022-10-28T01:21:58.202Z,2.67
2022-10-28T01:23:07.536Z,2.58
2022-10-28T01:24:22.759Z,2.25
2022-10-28T01:25:48.270Z,3.55
2022-10-28T01:27:15.194Z,2.60
2022-10-28T01:28:42.616Z,2.47
2022-10-28T01:30:05.934Z,2.25
2022-10-28T01:31:26.648Z,2.58
2022-10-28T01:32:39.826Z,2.55
2022-10-28T01:33:51.207Z,2.90
2022-10-28T01:35:02.117Z,3.47
2022-10-28T01:36:11.506Z,2.50
2022-10-28T01:37:19.549Z,2.63
2022-10-28T01:38:31.637Z,2.20
2022-10-28T01:39:37.949Z,2.30
2022-10-28T01:40:48.221Z,2.60
2022-10-28T01:41:54.129Z,2.78
2022-10-28T01:43:04.321Z,2.20
2022-10-28T01:44:08.990Z,2.65
2022-10-28T01:45:17.057Z,2.38
2022-10-28T01:46:26.110Z,2.03
2022-10-28T01:47:32.994Z,2.60
2022-10-28T01:48:40.110Z,2.30
2022-10-28T01:49:50.277Z,2.28
2022-10-28T01:50:57.855Z,2.60
2022-10-28T01:52:05.223Z,3.33
2022-10-28T01:53:14.014Z,2.40
2022-10-28T01:54:19.173Z,2.72
2022-10-28T01:55:26.624Z,2.30
2022-10-28T01:56:33.137Z,2.30
2022-10-28T01:57:38.954Z,2.05
2022-10-28T01:58:41.562Z,2.20
2022-10-28T01:59:45.786Z,2.40
2022-10-28T02:00:49.298Z,2.67
2022-10-28T02:01:54.498Z,2.20
2022-10-28T02:02:56.827Z,2.40
2022-10-28T02:03:59.957Z,2.75
2022-10-28T02:05:27.023Z,2.60
2022-10-28T02:06:32.770Z,2.50
2022-10-28T02:07:34.922Z,1.98
2022-10-28T02:08:51.431Z,2.30
2022-10-28T02:10:05.825Z,2.58
2022-10-28T02:11:33.436Z,2.95
2022-10-28T02:12:38.632Z,2.13
2022-10-28T02:13:52.223Z,2.03
2022-10-28T02:15:29.481Z,2.60
2022-10-28T02:16:39.348Z,2.22
2022-10-28T02:17:57.905Z,2.83
2022-10-28T02:19:06.100Z,2.35
2022-10-28T02:20:15.772Z,2.40
2022-10-28T02:21:24.972Z,2.53
2022-10-28T02:22:34.613Z,2.30
2022-10-28T02:23:43.780Z,2.60
2022-10-28T02:24:55.559Z,2.13
2022-10-28T02:26:03.343Z,2.40
2022-10-28T02:27:13.234Z,2.42
2022-10-28T02:28:22.959Z,2.20
2022-10-28T02:29:30.978Z,2.30
2022-10-28T02:30:39.904Z,2.17
2022-10-28T02:31:48.064Z,3.05
2022-10-28T02:32:57.116Z,2.55
2022-10-28T02:34:04.505Z,2.65
2022-10-28T02:35:13.091Z,2.50
2022-10-28T02:36:19.392Z,2.78
2022-10-28T02:37:25.185Z,2.50
2022-10-28T02:38:34.106Z,2.30
2022-10-28T02:39:41.046Z,2.30
2022-10-28T02:40:50.113Z,2.28
2022-10-28T02:41:57.010Z,2.97
2022-10-28T02:43:02.769Z,2.50
2022-10-28T02:44:09.177Z,2.60
2022-10-28T02:45:14.668Z,2.30
2022-10-28T02:46:20.161Z,2.55
2022-10-28T02:47:26.291Z,2.50
2022-10-28T02:48:35.523Z,2.20
2022-10-28T02:49:41.595Z,2.03
2022-10-28T02:50:51.353Z,2.30
2022-10-28T02:51:57.985Z,2.50
2022-10-28T02:53:03.974Z,2.22
2022-10-28T02:54:09.143Z,2.33
2022-10-28T02:55:12.151Z,2.35
2022-10-28T02:56:16.967Z,2.28
2022-10-28T02:57:22.858Z,2.60
2022-10-28T02:58:24.878Z,2.50
2022-10-28T02:59:29.377Z,2.70
2022-10-28T03:00:31.252Z,2.08
2022-10-28T03:01:34.100Z,2.35
2022-10-28T03:02:36.088Z,2.45
2022-10-28T03:03:40.728Z,2.40
2022-10-28T03:04:42.617Z,2.30
2022-10-28T03:05:46.019Z,2.17
2022-10-28T03:06:47.907Z,2.50
2022-10-28T03:07:50.953Z,2.42
2022-10-28T03:08:53.769Z,2.30
2022-10-28T03:09:56.662Z,2.42
2022-10-28T03:10:58.501Z,2.08
2022-10-28T03:12:02.327Z,2.42
2022-10-28T03:13:04.249Z,2.20
2022-10-28T03:14:09.602Z,2.30
2022-10-28T03:15:13.885Z,2.13
2022-10-28T03:16:16.635Z,2.28
2022-10-28T03:17:18.431Z,2.92
2022-10-28T03:18:21.236Z,2.40
2022-10-28T03:19:24.953Z,3.08
2022-10-28T03:20:27.680Z,2.38
2022-10-28T03:21:29.477Z,2.20
2022-10-28T03:22:32.348Z,1.80
2022-10-28T03:23:34.400Z,2.47
2022-10-28T03:24:37.156Z,2.40
2022-10-28T03:25:38.987Z,2.63
2022-10-28T03:26:41.973Z,2.30
2022-10-28T03:27:43.763Z,3.00
2022-10-28T03:28:46.779Z,2.35
2022-10-28T03:29:48.669Z,1.90
2022-10-28T03:30:51.416Z,2.33
2022-10-28T03:31:53.342Z,2.05
2022-10-28T03:32:56.614Z,1.73
2022-10-28T03:33:58.645Z,1.90
2022-10-28T03:35:03.246Z,1.65
2022-10-28T03:36:06.519Z,2.40
2022-10-28T03:37:08.300Z,1.92
2022-10-28T03:38:11.098Z,2.20
2022-10-28T03:39:13.022Z,2.35
2022-10-28T03:40:16.039Z,2.10
2022-10-28T03:41:17.894Z,2.30
2022-10-28T03:42:20.677Z,3.47
2022-10-28T03:43:22.553Z,2.20
2022-10-28T03:44:25.322Z,2.00
2022-10-28T03:45:27.161Z,2.70
2022-10-28T03:46:32.286Z,1.90
2022-10-28T03:47:37.452Z,2.53
2022-10-28T03:48:40.298Z,1.92
2022-10-28T03:49:42.213Z,2.13
2022-10-28T03:50:46.417Z,2.22
2022-10-28T03:51:49.203Z,2.10
2022-10-28T03:52:51.026Z,2.40
2022-10-28T03:53:53.964Z,2.30
2022-10-28T03:54:55.741Z,2.28
2022-10-28T03:56:00.312Z,2.30
2022-10-28T03:57:03.105Z,2.08
2022-10-28T03:58:05.919Z,2.72
2022-10-28T03:59:09.032Z,2.10
2022-10-28T04:00:12.836Z,2.33
2022-10-28T04:01:15.214Z,2.60
2022-10-28T04:02:18.203Z,2.10
2022-10-28T04:03:22.179Z,2.42
2022-10-28T04:04:28.428Z,2.45
2022-10-28T04:05:32.612Z,2.45
2022-10-28T04:06:36.754Z,2.72
2022-10-28T04:07:38.526Z,2.35
2022-10-28T04:08:41.398Z,2.22
2022-10-28T04:09:43.331Z,2.40
2022-10-28T04:10:47.615Z,2.30
2022-10-28T04:11:49.545Z,2.45
2022-10-28T04:12:52.533Z,2.00
2022-10-28T04:13:54.649Z,2.15
2022-10-28T04:14:57.501Z,2.70
2022-10-28T04:15:59.377Z,2.20
2022-10-28T04:17:02.177Z,2.03
2022-10-28T04:18:04.628Z,2.30
2022-10-28T04:19:07.454Z,2.40
2022-10-28T04:20:09.777Z,2.08
2022-10-28T04:21:12.511Z,2.13
2022-10-28T04:22:16.073Z,2.28
2022-10-28T04:23:19.503Z,2.53
2022-10-28T04:24:21.487Z,2.45
2022-10-28T04:25:25.559Z,3.10
2022-10-28T04:26:27.314Z,2.35
2022-10-28T04:27:30.055Z,1.90
2022-10-28T04:28:32.110Z,2.10
2022-10-28T04:29:35.001Z,1.95
2022-10-28T04:30:37.807Z,2.65
2022-10-28T04:31:39.707Z,1.88
2022-10-28T04:32:44.465Z,2.70
2022-10-28T04:33:46.228Z,2.10
2022-10-28T04:34:49.066Z,2.00
2022-10-28T04:35:50.835Z,2.15
2022-10-28T04:36:53.717Z,2.72
2022-10-28T04:37:57.006Z,2.75
2022-10-28T04:39:00.049Z,1.80
2022-10-28T04:40:03.682Z,2.42
2022-10-28T04:41:06.791Z,2.25
2022-10-28T04:42:08.604Z,2.03
2022-10-28T04:43:11.757Z,2.28
2022-10-28T04:44:13.561Z,2.78
2022-10-28T04:45:16.670Z,1.70
2022-10-28T04:46:18.761Z,2.03
2022-10-28T04:47:21.579Z,2.10
2022-10-28T04:48:23.516Z,2.20
2022-10-28T04:49:26.539Z,2.05
2022-10-28T04:50:28.557Z,2.03
2022-10-28T04:51:31.446Z,2.63
2022-10-28T04:52:33.405Z,2.20
2022-10-28T04:53:37.570Z,1.98
2022-10-28T04:54:39.415Z,1.77
2022-10-28T04:55:43.376Z,2.15
2022-10-28T04:56:45.205Z,2.63
2022-10-28T04:57:54.919Z,2.53
2022-10-28T04:58:56.874Z,2.47
2022-10-28T04:59:59.735Z,2.55
2022-10-28T05:01:05.674Z,2.55
2022-10-28T05:02:08.738Z,2.70
2022-10-28T05:03:10.763Z,2.47
2022-10-28T05:04:13.812Z,1.90
2022-10-28T05:06:19.975Z,2.00
2022-10-28T05:07:23.557Z,1.90
2022-10-28T05:08:26.556Z,1.83
2022-10-28T05:09:29.672Z,3.95
2022-10-28T05:10:32.576Z,7.90
2022-10-28T05:11:34.393Z,5.88
2022-10-28T05:12:37.318Z,3.08
2022-10-28T05:13:40.182Z,2.30
2022-10-28T05:14:42.064Z,2.38
2022-10-28T05:15:44.919Z,2.85
2022-10-28T05:16:48.092Z,2.42
2022-10-28T05:17:51.302Z,3.25
2022-10-28T05:18:53.571Z,2.97
2022-10-28T05:19:56.499Z,3.05
2022-10-28T05:20:58.292Z,3.00
2022-10-28T05:22:01.022Z,2.78
2022-10-28T05:23:02.911Z,2.67
2022-10-28T05:24:06.441Z,2.55
2022-10-28T05:25:09.731Z,2.95
2022-10-28T05:26:12.540Z,2.85
2022-10-28T05:27:15.922Z,2.42
2022-10-28T05:28:19.457Z,2.75
2022-10-28T05:29:21.241Z,2.30
2022-10-28T05:30:24.008Z,2.40
2022-10-28T05:31:25.776Z,2.47
2022-10-28T05:32:28.654Z,2.30
2022-10-28T05:33:31.631Z,2.97
2022-10-28T05:34:33.453Z,2.53
2022-10-28T05:35:36.301Z,2.40
2022-10-28T05:36:38.536Z,2.75
2022-10-28T05:37:41.429Z,2.83
2022-10-28T05:38:45.409Z,2.67
2022-10-28T05:39:48.275Z,3.13
2022-10-28T05:40:51.530Z,2.53
2022-10-28T05:41:54.361Z,2.38
2022-10-28T05:42:56.378Z,2.30
2022-10-28T05:43:59.375Z,2.25
2022-10-28T05:45:02.205Z,2.90
2022-10-28T05:46:05.035Z,2.28
2022-10-28T05:47:06.904Z,2.50
2022-10-28T05:48:09.833Z,2.72
2022-10-28T05:49:11.632Z,2.80
2022-10-28T05:50:15.927Z,3.28
2022-10-28T05:51:18.722Z,2.75
2022-10-28T05:52:20.687Z,2.42
2022-10-28T05:53:23.455Z,2.65
2022-10-28T05:54:25.280Z,3.20
2022-10-28T05:55:29.680Z,2.97
2022-10-28T05:56:32.957Z,2.30
2022-10-28T05:57:36.315Z,3.35
2022-10-28T05:58:39.222Z,3.15
2022-10-28T05:59:41.018Z,2.88
2022-10-28T06:00:43.775Z,2.78
2022-10-28T06:01:45.658Z,3.60
2022-10-28T06:02:48.531Z,3.17
2022-10-28T06:03:51.106Z,2.63
2022-10-28T06:04:54.266Z,2.83
2022-10-28T06:05:58.674Z,2.45
2022-10-28T06:07:00.561Z,2.42
2022-10-28T06:08:06.547Z,2.45
2022-10-28T06:09:08.446Z,2.90
2022-10-28T06:10:12.673Z,2.60
2022-10-28T06:11:12.971Z,2.90
2022-10-28T06:12:17.340Z,2.33
2022-10-28T06:13:20.816Z,2.40
2022-10-28T06:14:22.577Z,3.55
2022-10-28T06:15:25.816Z,2.97
2022-10-28T06:16:27.686Z,3.00
2022-10-28T06:17:30.564Z,2.78
2022-10-28T06:18:33.883Z,2.70
2022-10-28T06:19:35.736Z,2.75
2022-10-28T06:20:38.539Z,2.67
2022-10-28T06:21:40.514Z,2.97
2022-10-28T06:22:47.271Z,2.38
2022-10-28T06:23:49.895Z,2.92
2022-10-28T06:24:52.687Z,2.58
2022-10-28T06:27:04.120Z,2.25
2022-10-28T06:28:10.359Z,2.83
2022-10-28T06:29:13.549Z,2.60
2022-10-28T06:30:15.443Z,3.00
2022-10-28T06:31:18.239Z,2.53
2022-10-28T06:32:20.133Z,2.65
2022-10-28T06:33:23.050Z,2.33
2022-10-28T06:34:24.839Z,2.50
2022-10-28T06:35:27.642Z,2.15
2022-10-28T06:36:30.628Z,2.40
2022-10-28T06:37:32.550Z,2.65
2022-10-28T06:38:35.412Z,2.70
2022-10-28T06:39:38.284Z,2.35
2022-10-28T06:40:41.138Z,2.67
2022-10-28T06:41:43.069Z,2.53
2022-10-28T06:42:45.907Z,2.63
2022-10-28T06:43:49.173Z,2.47
2022-10-28T06:44:53.116Z,2.42
2022-10-28T06:45:55.932Z,2.53
2022-10-28T06:47:00.238Z,2.70
2022-10-28T06:48:05.722Z,3.20
2022-10-28T06:49:09.148Z,2.65
2022-10-28T06:50:11.089Z,3.08
2022-10-28T06:51:13.898Z,4.53
2022-10-28T06:52:16.989Z,3.80
2022-10-28T06:53:19.809Z,3.53
2022-10-28T06:54:22.557Z,3.60
2022-10-28T06:55:25.844Z,4.15
2022-10-28T06:56:28.697Z,3.92
2022-10-28T06:57:31.410Z,4.32
2022-10-28T06:58:34.229Z,3.35
2022-10-28T06:59:37.429Z,3.15
2022-10-28T07:00:40.327Z,3.28
2022-10-28T07:01:42.307Z,3.22
2022-10-28T07:02:45.565Z,4.47
2022-10-28T07:03:49.137Z,3.30
2022-10-28T07:04:50.933Z,3.42
2022-10-28T07:05:53.776Z,3.50
2022-10-28T07:06:56.046Z,3.47
2022-10-28T07:07:58.878Z,3.20
2022-10-28T07:09:02.249Z,2.70
2022-10-28T07:10:05.939Z,3.03
2022-10-28T07:11:10.324Z,3.55
2022-10-28T07:12:13.220Z,3.97
2022-10-28T07:13:15.112Z,3.13
2022-10-28T07:14:18.121Z,2.85
2022-10-28T07:15:21.564Z,2.90
2022-10-28T07:16:25.605Z,2.78
2022-10-28T07:17:27.495Z,3.20
2022-10-28T07:18:31.178Z,3.25
2022-10-28T07:19:33.362Z,2.35
2022-10-28T07:20:36.199Z,2.85
2022-10-28T07:21:38.141Z,4.03
2022-10-28T07:22:41.007Z,2.10
2022-10-28T07:23:43.911Z,2.20
2022-10-28T07:24:46.874Z,2.45
2022-10-28T07:27:02.220Z,2.67
2022-10-28T07:28:04.554Z,2.20
2022-10-28T07:29:07.485Z,1.80
2022-10-28T07:30:10.957Z,1.77
2022-10-28T07:31:15.428Z,2.15
2022-10-28T07:32:17.565Z,2.35
2022-10-28T07:33:20.697Z,2.15
2022-10-28T07:34:26.825Z,1.80
2022-10-28T07:35:31.751Z,1.80
2022-10-28T07:36:34.764Z,1.55
2022-10-28T07:37:38.333Z,2.15
2022-10-28T07:38:41.264Z,2.22
2022-10-28T07:39:44.412Z,2.00
2022-10-28T07:40:47.568Z,1.83
2022-10-28T07:41:50.424Z,1.90
2022-10-28T07:42:52.555Z,2.92
2022-10-28T07:43:56.136Z,3.50
2022-10-28T07:44:58.024Z,2.80
2022-10-28T07:46:02.284Z,2.70
2022-10-28T07:47:05.640Z,2.60
2022-10-28T07:48:08.785Z,2.03
2022-10-28T07:49:10.793Z,1.70
2022-10-28T07:50:14.096Z,2.20
2022-10-28T07:51:17.309Z,1.83
2022-10-28T07:52:20.375Z,1.60
2022-10-28T07:53:24.843Z,2.50
2022-10-28T07:54:31.934Z,1.80
2022-10-28T07:55:34.865Z,1.90
2022-10-28T07:56:36.707Z,2.42
2022-10-28T07:57:39.967Z,2.15
2022-10-28T07:58:43.310Z,2.35
2022-10-28T07:59:46.320Z,2.33
2022-10-28T08:00:49.279Z,2.30
2022-10-28T08:01:52.309Z,2.10
2022-10-28T08:02:55.598Z,2.55
2022-10-28T08:03:58.634Z,1.45
2022-10-28T08:05:02.279Z,2.10
2022-10-28T08:06:07.844Z,1.50
2022-10-28T08:07:10.837Z,1.83
2022-10-28T08:08:13.413Z,1.75
2022-10-28T08:09:17.341Z,2.20
2022-10-28T08:10:19.377Z,1.75
2022-10-28T08:11:23.863Z,2.30
2022-10-28T08:12:28.260Z,2.30
2022-10-28T08:13:34.927Z,1.90
2022-10-28T08:14:39.663Z,2.38
2022-10-28T08:15:41.572Z,2.55
2022-10-28T08:16:44.682Z,2.10
2022-10-28T08:17:52.750Z,1.70
2022-10-28T08:18:56.921Z,2.13
2022-10-28T08:19:59.878Z,2.03
2022-10-28T08:21:04.143Z,1.92
2022-10-28T08:22:08.373Z,3.13
2022-10-28T08:23:10.389Z,2.30
2022-10-28T08:24:13.502Z,2.13
2022-10-28T08:25:15.621Z,2.90
2022-10-28T08:26:18.556Z,2.50
2022-10-28T08:27:20.758Z,2.10
2022-10-28T08:28:24.041Z,2.40
2022-10-28T08:29:29.048Z,2.35
2022-10-28T08:30:40.335Z,2.10
2022-10-28T08:31:53.474Z,1.90
2022-10-28T08:32:56.049Z,2.28
2022-10-28T08:34:00.912Z,2.03
2022-10-28T08:35:04.510Z,2.72
2022-10-28T08:36:08.280Z,2.33
2022-10-28T08:37:11.349Z,3.10
2022-10-28T08:38:14.337Z,1.60
2022-10-28T08:39:17.382Z,1.95
2022-10-28T08:40:26.848Z,2.10
2022-10-28T08:41:37.178Z,1.42
2022-10-28T08:42:47.406Z,2.03
2022-10-28T08:44:06.196Z,2.55
2022-10-28T08:45:24.406Z,1.92
2022-10-28T08:46:42.425Z,1.90
2022-10-28T08:47:54.514Z,2.03
2022-10-28T08:48:57.973Z,1.60
2022-10-28T08:50:11.800Z,1.95
2022-10-28T08:51:18.605Z,1.52
2022-10-28T08:52:28.542Z,2.67
2022-10-28T08:53:35.823Z,2.40
2022-10-28T08:54:47.257Z,1.80
2022-10-28T08:55:52.447Z,2.08
2022-10-28T08:56:56.174Z,1.50
2022-10-28T08:58:04.011Z,2.17
2022-10-28T08:59:13.154Z,2.15
2022-10-28T09:00:22.971Z,1.70
2022-10-28T09:01:36.473Z,1.92
2022-10-28T09:02:51.023Z,2.35
2022-10-28T09:03:54.668Z,2.65
2022-10-28T09:05:03.404Z,1.70
2022-10-28T09:06:10.250Z,1.85
2022-10-28T09:07:16.985Z,2.53
2022-10-28T09:08:23.927Z,2.30
2022-10-28T09:09:26.900Z,3.15
2022-10-28T09:11:07.821Z,2.05
2022-10-28T09:12:26.149Z,2.25
2022-10-28T09:13:42.326Z,2.30
2022-10-28T09:15:02.289Z,2.40
2022-10-28T09:16:15.294Z,2.10
2022-10-28T09:17:21.083Z,2.63
2022-10-28T09:18:36.653Z,2.05
2022-10-28T09:19:47.464Z,2.03
2022-10-28T09:20:53.809Z,2.38
2022-10-28T09:22:11.140Z,1.55
2022-10-28T09:23:21.976Z,2.42
2022-10-28T09:24:29.827Z,1.92
2022-10-28T09:25:42.646Z,2.17
2022-10-28T09:26:54.211Z,2.15
2022-10-28T09:28:19.225Z,1.75
2022-10-28T09:29:39.203Z,2.30
2022-10-28T09:30:53.162Z,1.67
2022-10-28T09:32:02.444Z,1.20
2022-10-28T09:33:18.004Z,1.60
2022-10-28T09:34:30.347Z,1.52
2022-10-28T09:35:37.693Z,1.23
2022-10-28T09:36:44.676Z,1.70
2022-10-28T09:37:53.657Z,1.50
2022-10-28T09:38:58.708Z,1.90
2022-10-28T09:40:07.148Z,1.20
2022-10-28T09:41:15.246Z,1.50
2022-10-28T09:42:25.098Z,1.60
2022-10-28T09:43:30.948Z,1.45
2022-10-28T09:44:41.726Z,1.80
2022-10-28T09:45:47.515Z,2.00
2022-10-28T09:46:53.578Z,2.10
2022-10-28T09:47:59.545Z,1.35
2022-10-28T09:49:06.010Z,1.65
2022-10-28T09:50:16.983Z,1.20
2022-10-28T09:51:29.819Z,1.60
2022-10-28T09:52:40.156Z,2.05
2022-10-28T09:53:48.173Z,1.50
2022-10-28T09:54:53.242Z,1.35
2022-10-28T09:55:55.821Z,1.30
2022-10-28T09:56:58.739Z,1.90
2022-10-28T09:58:03.519Z,1.60
2022-10-28T09:59:06.353Z,1.60
2022-10-28T10:00:13.846Z,2.10
2022-10-28T10:01:19.065Z,1.75
2022-10-28T10:02:29.427Z,1.70
2022-10-28T10:03:31.733Z,1.50
2022-10-28T10:04:35.696Z,3.05
2022-10-28T10:05:41.382Z,1.90
2022-10-28T10:06:45.179Z,1.05
2022-10-28T10:07:52.216Z,2.00
2022-10-28T10:08:57.249Z,0.95
2022-10-28T10:10:06.267Z,1.45
2022-10-28T10:11:18.489Z,1.40
2022-10-28T10:12:20.857Z,1.33
2022-10-28T10:13:28.400Z,1.33
2022-10-28T10:14:36.884Z,1.48
2022-10-28T10:15:44.574Z,1.25
2022-10-28T10:16:50.845Z,1.55
2022-10-28T10:17:54.364Z,2.15
2022-10-28T10:19:02.186Z,1.30
2022-10-28T10:20:08.745Z,1.90
2022-10-28T10:21:11.523Z,1.50
2022-10-28T10:22:29.552Z,1.20
2022-10-28T10:23:34.163Z,1.58
2022-10-28T10:24:37.606Z,1.58
2022-10-28T10:25:40.582Z,1.80
2022-10-28T10:26:43.413Z,1.20
2022-10-28T10:27:52.292Z,0.95
2022-10-28T10:28:55.469Z,1.25
2022-10-28T10:29:58.844Z,1.95
2022-10-28T10:31:04.314Z,1.38
2022-10-28T10:32:15.894Z,1.25
2022-10-28T10:33:22.816Z,1.60
2022-10-28T10:34:30.100Z,1.50
2022-10-28T10:35:35.274Z,1.27
2022-10-28T10:36:38.064Z,3.80
2022-10-28T10:37:45.038Z,1.40
2022-10-28T10:38:48.896Z,1.20
2022-10-28T10:40:06.962Z,1.30
2022-10-28T10:41:09.789Z,1.00
2022-10-28T10:42:22.474Z,1.45
2022-10-28T10:43:31.842Z,1.42
2022-10-28T10:44:35.725Z,1.25
2022-10-28T10:45:39.529Z,1.48
2022-10-28T10:46:41.390Z,1.15
2022-10-28T10:47:44.387Z,1.20
2022-10-28T10:48:47.464Z,2.47
2022-10-28T10:49:49.833Z,1.40
2022-10-28T10:50:53.720Z,1.20
2022-10-28T10:51:57.650Z,1.50
2022-10-28T10:53:03.393Z,1.20
2022-10-28T10:54:06.351Z,1.60
2022-10-28T10:55:22.156Z,1.40
2022-10-28T10:56:27.483Z,1.20
2022-10-28T10:57:29.857Z,1.10
2022-10-28T10:58:35.827Z,1.20
2022-10-28T10:59:38.159Z,0.95
2022-10-28T11:00:50.961Z,1.15
2022-10-28T11:01:55.382Z,1.40
2022-10-28T11:02:58.672Z,1.15
2022-10-28T11:04:03.914Z,1.30
2022-10-28T11:05:09.799Z,1.10
2022-10-28T11:06:23.895Z,1.20
2022-10-28T11:07:28.289Z,1.17
2022-10-28T11:08:38.162Z,1.10
2022-10-28T11:09:43.172Z,1.50
2022-10-28T11:11:03.884Z,1.27
2022-10-28T11:12:16.094Z,1.00
2022-10-28T11:13:27.087Z,1.15
2022-10-28T11:14:32.283Z,1.10
2022-10-28T11:15:35.269Z,1.00
2022-10-28T11:16:56.749Z,1.08
2022-10-28T11:18:01.031Z,1.38
2022-10-28T11:19:20.453Z,1.63
2022-10-28T11:20:26.082Z,1.60
2022-10-28T11:21:43.267Z,1.20
2022-10-28T11:22:55.094Z,1.48
2022-10-28T11:24:12.024Z,1.38
2022-10-28T11:25:33.325Z,1.75
2022-10-28T11:26:45.217Z,1.00
2022-10-28T11:28:01.676Z,1.52
2022-10-28T11:29:11.086Z,0.90
2022-10-28T11:30:17.100Z,1.30
2022-10-28T11:31:39.704Z,1.70
2022-10-28T11:33:02.249Z,1.40
2022-10-28T11:34:24.364Z,1.23
2022-10-28T11:35:38.171Z,1.90
2022-10-28T11:36:51.471Z,1.13
2022-10-28T11:38:09.626Z,1.38
2022-10-28T11:39:34.723Z,0.95
2022-10-28T11:40:48.313Z,0.90
2022-10-28T11:42:09.089Z,1.60
2022-10-28T11:43:23.177Z,1.55
2022-10-28T11:44:41.024Z,1.30
2022-10-28T11:45:51.320Z,1.60
2022-10-28T11:47:05.255Z,1.10
2022-10-28T11:48:22.112Z,1.20
2022-10-28T11:50:03.511Z,1.88
2022-10-28T11:51:18.029Z,1.30
2022-10-28T11:52:32.830Z,1.15
2022-10-28T11:53:56.465Z,1.25
2022-10-28T11:55:14.462Z,1.20
2022-10-28T11:56:27.508Z,1.33
2022-10-28T11:57:46.720Z,1.80
2022-10-28T11:58:57.629Z,1.23
2022-10-28T12:00:16.119Z,1.13
2022-10-28T12:01:37.483Z,1.02
2022-10-28T12:02:56.920Z,1.27
2022-10-28T12:04:23.235Z,1.42
2022-10-28T12:05:31.481Z,1.15
2022-10-28T12:06:58.640Z,1.50
2022-10-28T12:08:22.263Z,1.10
2022-10-28T12:09:33.534Z,1.25
2022-10-28T12:10:46.838Z,1.48
2022-10-28T12:12:06.141Z,1.23
2022-10-28T12:13:18.974Z,1.20
2022-10-28T12:14:30.044Z,1.10
2022-10-28T12:15:37.070Z,1.23
2022-10-28T12:16:48.173Z,0.70
2022-10-28T12:17:59.036Z,1.38
2022-10-28T12:19:06.662Z,1.23
2022-10-28T12:20:15.833Z,1.23
2022-10-28T12:21:29.248Z,1.80
2022-10-28T12:22:38.041Z,1.50
2022-10-28T12:23:43.283Z,1.10
2022-10-28T12:24:46.809Z,1.10
2022-10-28T12:25:52.599Z,1.60
2022-10-28T12:26:58.510Z,1.42
2022-10-28T12:28:04.536Z,1.10
2022-10-28T12:29:15.817Z,1.05
2022-10-28T12:30:22.992Z,1.50
2022-10-28T12:31:29.193Z,1.30
2022-10-28T12:32:35.411Z,1.00
2022-10-28T12:33:43.886Z,0.80
2022-10-28T12:34:50.225Z,1.15
2022-10-28T12:35:59.560Z,1.10
2022-10-28T12:37:07.317Z,1.38
2022-10-28T12:38:16.298Z,1.50
2022-10-28T12:39:21.388Z,1.48
2022-10-28T12:40:27.998Z,1.40
2022-10-28T12:41:48.022Z,1.08
2022-10-28T12:42:56.492Z,1.27
2022-10-28T12:44:03.928Z,1.00
2022-10-28T12:45:14.933Z,1.48
2022-10-28T12:46:24.601Z,1.90
2022-10-28T12:47:32.229Z,2.40
2022-10-28T12:48:41.670Z,2.70
2022-10-28T12:49:55.714Z,2.58
2022-10-28T12:51:04.544Z,3.03
2022-10-28T12:52:16.591Z,2.40
2022-10-28T12:53:35.410Z,3.00
2022-10-28T12:54:52.671Z,2.38
2022-10-28T12:56:00.484Z,2.67
2022-10-28T12:57:09.819Z,2.00
2022-10-28T12:58:18.625Z,3.20
2022-10-28T12:59:29.171Z,3.90
2022-10-28T13:00:37.290Z,2.90
2022-10-28T13:01:41.080Z,3.40
2022-10-28T13:02:48.961Z,2.70
2022-10-28T13:03:52.603Z,2.90
2022-10-28T13:04:54.970Z,3.08
2022-10-28T13:06:23.003Z,3.35
2022-10-28T13:07:42.027Z,3.13
2022-10-28T13:10:18.830Z,3.45
2022-10-28T13:11:39.639Z,2.90
2022-10-28T13:13:02.133Z,2.83
2022-10-28T13:14:12.355Z,3.25
2022-10-28T13:15:26.689Z,3.25
2022-10-28T13:17:02.180Z,3.20
2022-10-28T13:18:26.922Z,2.88
2022-10-28T13:20:00.025Z,2.40
2022-10-28T13:21:14.701Z,3.53
2022-10-28T13:22:31.512Z,3.25
2022-10-28T13:23:41.839Z,3.15
2022-10-28T13:24:54.284Z,2.83
2022-10-28T13:26:08.851Z,2.80
2022-10-28T13:27:13.327Z,2.78
2022-10-28T13:28:21.040Z,3.25
2022-10-28T13:29:27.060Z,3.67
2022-10-28T13:30:31.934Z,3.00
2022-10-28T13:31:40.772Z,3.38
2022-10-28T13:32:44.601Z,3.00
2022-10-28T13:33:52.282Z,3.08
2022-10-28T13:34:54.321Z,3.00
2022-10-28T13:36:12.852Z,3.80
2022-10-28T13:37:20.348Z,3.00
2022-10-28T13:38:25.946Z,3.58
2022-10-28T13:39:43.143Z,2.72
2022-10-28T13:41:27.952Z,4.28
2022-10-28T13:42:55.805Z,3.00
2022-10-28T13:44:23.099Z,3.70
2022-10-28T13:45:48.343Z,2.25
2022-10-28T13:47:26.218Z,3.00
2022-10-28T13:48:49.229Z,3.17
2022-10-28T13:50:35.344Z,3.70
2022-10-28T13:51:47.115Z,2.60
2022-10-28T13:53:36.197Z,2.78
2022-10-28T13:54:54.722Z,2.78
2022-10-28T13:55:57.810Z,3.10
2022-10-28T13:57:08.475Z,3.03
2022-10-28T13:58:22.126Z,3.05
2022-10-28T13:59:41.225Z,3.20
2022-10-28T14:00:43.178Z,2.83
2022-10-28T14:02:01.257Z,2.95
2022-10-28T14:03:19.701Z,2.90
2022-10-28T14:04:26.544Z,2.97
2022-10-28T14:05:54.867Z,2.75
2022-10-28T14:07:16.205Z,3.15
2022-10-28T14:08:22.776Z,2.65
2022-10-28T14:09:30.059Z,2.95
2022-10-28T14:10:34.203Z,3.08
2022-10-28T14:11:36.156Z,2.50
2022-10-28T14:12:43.697Z,2.97
2022-10-28T14:13:49.496Z,2.50
2022-10-28T14:15:00.787Z,3.03
2022-10-28T14:16:23.444Z,3.22
2022-10-28T14:17:29.751Z,2.45
2022-10-28T14:18:48.187Z,3.30
2022-10-28T14:19:53.428Z,2.40
2022-10-28T14:21:02.308Z,3.45
2022-10-28T14:22:07.580Z,2.50
2022-10-28T14:23:52.301Z,2.65
2022-10-28T14:24:55.252Z,2.90
2022-10-28T14:26:04.461Z,3.78
2022-10-28T14:27:28.037Z,2.60
2022-10-28T14:28:56.764Z,3.70
2022-10-28T14:30:23.010Z,3.05
2022-10-28T14:31:45.152Z,2.72
2022-10-28T14:33:12.248Z,2.90
2022-10-28T14:34:44.603Z,3.50
2022-10-28T14:35:53.020Z,3.10
2022-10-28T14:37:04.607Z,2.60
2022-10-28T14:38:39.744Z,2.55
2022-10-28T14:39:53.267Z,3.00
2022-10-28T14:41:06.110Z,3.13
2022-10-28T14:42:38.779Z,2.50
2022-10-28T14:43:54.199Z,3.30
2022-10-28T14:45:09.778Z,2.70
2022-10-28T14:46:28.327Z,2.55
2022-10-28T14:47:48.570Z,2.55
2022-10-28T14:48:53.167Z,2.55
2022-10-28T14:50:02.268Z,2.40
2022-10-28T14:51:13.172Z,3.00
2022-10-28T14:52:19.022Z,2.50
2022-10-28T14:53:25.917Z,3.10
2022-10-28T14:54:39.771Z,3.30
2022-10-28T14:55:48.131Z,3.33
2022-10-28T14:56:57.006Z,3.05
2022-10-28T14:58:13.277Z,3.85
2022-10-28T14:59:25.338Z,3.75
2022-10-28T15:00:29.421Z,3.13
2022-10-28T15:01:51.146Z,2.90
2022-10-28T15:02:56.006Z,3.05
2022-10-28T15:04:03.339Z,3.30